sensor_id;sensor_type;location;lat;lon;timestamp;pressure;altitude;pressure_sealevel;temperature;humidity
49297;BME280;35163;48.878;18.040;2022-09-12T00:01:14;98315.06;;;13.36;100.00
49297;BME280;35163;48.878;18.040;2022-09-12T00:03:41;98321.09;;;13.37;100.00
49297;BME280;35163;48.878;18.040;2022-09-12T00:06:16;98318.56;;;13.35;100.00
49297;BME280;35163;48.878;18.040;2022-09-12T00:08:48;98324.66;;;13.34;100.00
49297;BME280;35163;48.878;18.040;2022-09-12T00:11:15;98324.94;;;13.28;100.00
49297;BME280;35163;48.878;18.040;2022-09-12T00:13:42;98323.28;;;13.27;100.00
49297;BME280;35163;48.878;18.040;2022-09-12T00:16:19;98320.72;;;13.25;100.00
49297;BME280;35163;48.878;18.040;2022-09-12T00:18:46;98321.72;;;13.23;100.00
49297;BME280;35163;48.878;18.040;2022-09-12T00:21:15;98324.31;;;13.23;100.00
49297;BME280;35163;48.878;18.040;2022-09-12T00:23:42;98314.31;;;13.13;100.00
49297;BME280;35163;48.878;18.040;2022-09-12T00:26:09;98314.59;;;13.07;100.00
49297;BME280;35163;48.878;18.040;2022-09-12T00:28:37;98315.38;;;13.09;100.00
49297;BME280;35163;48.878;18.040;2022-09-12T00:31:06;98308.09;;;12.97;100.00
49297;BME280;35163;48.878;18.040;2022-09-12T00:33:34;98316.47;;;12.83;100.00
49297;BME280;35163;48.878;18.040;2022-09-12T00:36:22;98316.03;;;12.73;100.00
49297;BME280;35163;48.878;18.040;2022-09-12T00:38:51;98320.25;;;12.75;100.00
49297;BME280;35163;48.878;18.040;2022-09-12T00:41:32;98317.78;;;12.72;100.00
49297;BME280;35163;48.878;18.040;2022-09-12T00:50:09;98322.13;;;12.72;100.00
49297;BME280;35163;48.878;18.040;2022-09-12T00:52:50;98318.56;;;12.74;100.00
49297;BME280;35163;48.878;18.040;2022-09-12T00:55:23;98325.44;;;12.75;100.00
49297;BME280;35163;48.878;18.040;2022-09-12T00:57:57;98321.09;;;12.76;100.00
49297;BME280;35163;48.878;18.040;2022-09-12T01:00:26;98321.09;;;12.76;100.00
49297;BME280;35163;48.878;18.040;2022-09-12T01:02:57;98319.28;;;12.78;100.00
49297;BME280;35163;48.878;18.040;2022-09-12T01:05:27;98325.19;;;12.82;100.00
49297;BME280;35163;48.878;18.040;2022-09-12T01:07:56;98320.72;;;12.85;100.00
49297;BME280;35163;48.878;18.040;2022-09-12T01:10:23;98324.09;;;12.87;100.00
49297;BME280;35163;48.878;18.040;2022-09-12T01:12:50;98323.16;;;12.88;100.00
49297;BME280;35163;48.878;18.040;2022-09-12T01:15:17;98326.53;;;12.91;100.00
49297;BME280;35163;48.878;18.040;2022-09-12T01:18:03;98325.38;;;12.98;100.00
49297;BME280;35163;48.878;18.040;2022-09-12T01:23:23;98327.06;;;12.99;100.00
49297;BME280;35163;48.878;18.040;2022-09-12T01:26:02;98330.31;;;13.04;100.00
49297;BME280;35163;48.878;18.040;2022-09-12T01:41:46;98323.66;;;13.18;100.00
49297;BME280;35163;48.878;18.040;2022-09-12T01:47:02;98327.94;;;13.19;100.00
49297;BME280;35163;48.878;18.040;2022-09-12T01:52:22;98318.84;;;13.29;100.00
49297;BME280;35163;48.878;18.040;2022-09-12T01:54:59;98329.94;;;13.33;100.00
49297;BME280;35163;48.878;18.040;2022-09-12T01:57:46;98329.69;;;13.39;100.00
49297;BME280;35163;48.878;18.040;2022-09-12T02:00:14;98334.50;;;13.47;100.00
49297;BME280;35163;48.878;18.040;2022-09-12T02:02:51;98331.34;;;13.40;100.00
49297;BME280;35163;48.878;18.040;2022-09-12T02:08:10;98335.97;;;13.33;100.00
49297;BME280;35163;48.878;18.040;2022-09-12T02:10:57;98327.69;;;13.25;100.00
49297;BME280;35163;48.878;18.040;2022-09-12T02:16:07;98336.25;;;13.27;100.00
49297;BME280;35163;48.878;18.040;2022-09-12T02:18:39;98337.22;;;13.24;100.00
49297;BME280;35163;48.878;18.040;2022-09-12T02:21:08;98337.16;;;13.26;100.00
49297;BME280;35163;48.878;18.040;2022-09-12T02:23:38;98334.47;;;13.28;100.00
49297;BME280;35163;48.878;18.040;2022-09-12T02:26:11;98325.09;;;13.25;100.00
49297;BME280;35163;48.878;18.040;2022-09-12T02:28:40;98325.00;;;13.27;100.00
49297;BME280;35163;48.878;18.040;2022-09-12T02:39:34;98323.78;;;13.35;100.00
49297;BME280;35163;48.878;18.040;2022-09-12T02:42:02;98316.88;;;13.34;100.00
49297;BME280;35163;48.878;18.040;2022-09-12T02:44:30;98317.66;;;13.36;100.00
49297;BME280;35163;48.878;18.040;2022-09-12T02:47:03;98315.75;;;13.40;100.00
49297;BME280;35163;48.878;18.040;2022-09-12T02:49:31;98324.53;;;13.37;100.00
49297;BME280;35163;48.878;18.040;2022-09-12T02:51:58;98322.63;;;13.41;100.00
49297;BME280;35163;48.878;18.040;2022-09-12T02:54:26;98319.94;;;13.44;100.00
49297;BME280;35163;48.878;18.040;2022-09-12T02:56:53;98328.31;;;13.49;100.00
49297;BME280;35163;48.878;18.040;2022-09-12T02:59:21;98329.19;;;13.50;100.00
49297;BME280;35163;48.878;18.040;2022-09-12T03:05:21;98330.47;;;13.60;100.00
49297;BME280;35163;48.878;18.040;2022-09-12T03:08:20;98324.25;;;13.65;100.00
49297;BME280;35163;48.878;18.040;2022-09-12T03:11:07;98318.34;;;13.61;100.00
49297;BME280;35163;48.878;18.040;2022-09-12T03:13:57;98315.25;;;13.53;100.00
49297;BME280;35163;48.878;18.040;2022-09-12T03:16:41;98305.44;;;13.39;100.00
49297;BME280;35163;48.878;18.040;2022-09-12T03:22:02;98300.16;;;13.21;100.00
49297;BME280;35163;48.878;18.040;2022-09-12T03:29:37;98314.94;;;13.19;100.00
49297;BME280;35163;48.878;18.040;2022-09-12T03:32:04;98317.44;;;13.22;100.00
49297;BME280;35163;48.878;18.040;2022-09-12T03:34:32;98316.72;;;13.18;100.00
49297;BME280;35163;48.878;18.040;2022-09-12T03:36:59;98315.22;;;13.12;100.00
49297;BME280;35163;48.878;18.040;2022-09-12T03:39:26;98314.44;;;13.10;100.00
49297;BME280;35163;48.878;18.040;2022-09-12T03:41:54;98316.41;;;13.05;100.00
49297;BME280;35163;48.878;18.040;2022-09-12T03:44:22;98315.31;;;13.11;100.00
49297;BME280;35163;48.878;18.040;2022-09-12T03:46:49;98327.34;;;13.12;100.00
49297;BME280;35163;48.878;18.040;2022-09-12T03:49:15;98320.78;;;13.05;100.00
49297;BME280;35163;48.878;18.040;2022-09-12T03:51:43;98322.00;;;12.96;100.00
49297;BME280;35163;48.878;18.040;2022-09-12T03:54:10;98316.94;;;12.93;100.00
49297;BME280;35163;48.878;18.040;2022-09-12T03:56:36;98326.34;;;12.95;100.00
49297;BME280;35163;48.878;18.040;2022-09-12T03:59:04;98324.19;;;12.84;100.00
49297;BME280;35163;48.878;18.040;2022-09-12T04:01:32;98336.41;;;12.82;100.00
49297;BME280;35163;48.878;18.040;2022-09-12T04:03:59;98329.66;;;12.78;100.00
49297;BME280;35163;48.878;18.040;2022-09-12T04:06:26;98328.03;;;12.75;100.00
49297;BME280;35163;48.878;18.040;2022-09-12T04:08:53;98334.19;;;12.73;100.00
49297;BME280;35163;48.878;18.040;2022-09-12T04:11:21;98333.34;;;12.72;100.00
49297;BME280;35163;48.878;18.040;2022-09-12T04:13:48;98331.53;;;12.74;100.00
49297;BME280;35163;48.878;18.040;2022-09-12T04:16:15;98321.22;;;12.73;100.00
49297;BME280;35163;48.878;18.040;2022-09-12T04:18:43;98325.44;;;12.75;100.00
49297;BME280;35163;48.878;18.040;2022-09-12T04:21:13;98328.69;;;12.81;100.00
49297;BME280;35163;48.878;18.040;2022-09-12T04:23:40;98329.59;;;12.80;100.00
49297;BME280;35163;48.878;18.040;2022-09-12T04:26:07;98323.53;;;12.79;100.00
49297;BME280;35163;48.878;18.040;2022-09-12T04:28:35;98319.84;;;12.85;100.00
49297;BME280;35163;48.878;18.040;2022-09-12T04:31:07;98317.97;;;12.88;100.00
49297;BME280;35163;48.878;18.040;2022-09-12T04:33:35;98318.91;;;12.87;100.00
49297;BME280;35163;48.878;18.040;2022-09-12T04:36:20;98325.50;;;12.95;100.00
49297;BME280;35163;48.878;18.040;2022-09-12T04:38:49;98326.28;;;12.97;100.00
49297;BME280;35163;48.878;18.040;2022-09-12T04:41:18;98319.84;;;13.06;100.00
49297;BME280;35163;48.878;18.040;2022-09-12T04:43:46;98322.44;;;13.06;100.00
49297;BME280;35163;48.878;18.040;2022-09-12T04:46:16;98322.06;;;13.15;100.00
49297;BME280;35163;48.878;18.040;2022-09-12T04:48:45;98326.97;;;13.21;100.00
49297;BME280;35163;48.878;18.040;2022-09-12T04:51:16;98317.28;;;13.25;100.00
49297;BME280;35163;48.878;18.040;2022-09-12T04:53:47;98329.94;;;13.33;100.00
49297;BME280;35163;48.878;18.040;2022-09-12T04:56:14;98322.91;;;13.35;100.00
49297;BME280;35163;48.878;18.040;2022-09-12T04:58:40;98326.22;;;13.39;100.00
49297;BME280;35163;48.878;18.040;2022-09-12T05:01:12;98331.06;;;13.46;100.00
49297;BME280;35163;48.878;18.040;2022-09-12T05:03:40;98322.44;;;13.46;100.00
49297;BME280;35163;48.878;18.040;2022-09-12T05:06:11;98336.03;;;13.53;100.00
49297;BME280;35163;48.878;18.040;2022-09-12T05:08:38;98342.03;;;13.53;100.00
49297;BME280;35163;48.878;18.040;2022-09-12T05:11:07;98339.06;;;13.63;100.00
49297;BME280;35163;48.878;18.040;2022-09-12T05:13:34;98342.50;;;13.63;100.00
49297;BME280;35163;48.878;18.040;2022-09-12T05:16:02;98348.16;;;13.52;100.00
49297;BME280;35163;48.878;18.040;2022-09-12T05:18:33;98344.84;;;13.48;100.00
49297;BME280;35163;48.878;18.040;2022-09-12T05:21:02;98352.44;;;13.53;100.00
49297;BME280;35163;48.878;18.040;2022-09-12T05:23:30;98354.00;;;13.57;100.00
49297;BME280;35163;48.878;18.040;2022-09-12T05:25:57;98352.44;;;13.53;100.00
49297;BME280;35163;48.878;18.040;2022-09-12T05:28:29;98352.31;;;13.56;100.00
49297;BME280;35163;48.878;18.040;2022-09-12T05:33:35;98356.84;;;13.51;100.00
49297;BME280;35163;48.878;18.040;2022-09-12T05:36:03;98364.31;;;13.59;100.00
49297;BME280;35163;48.878;18.040;2022-09-12T05:38:30;98366.22;;;13.55;100.00
49297;BME280;35163;48.878;18.040;2022-09-12T05:41:11;98371.16;;;13.62;100.00
49297;BME280;35163;48.878;18.040;2022-09-12T05:43:44;98371.00;;;13.65;100.00
49297;BME280;35163;48.878;18.040;2022-09-12T05:46:15;98361.88;;;13.75;100.00
49297;BME280;35163;48.878;18.040;2022-09-12T05:48:44;98369.38;;;13.81;100.00
49297;BME280;35163;48.878;18.040;2022-09-12T05:51:35;98369.03;;;13.89;100.00
49297;BME280;35163;48.878;18.040;2022-09-12T05:54:01;98372.88;;;14.00;100.00
49297;BME280;35163;48.878;18.040;2022-09-12T05:56:33;98377.91;;;14.04;100.00
49297;BME280;35163;48.878;18.040;2022-09-12T05:59:06;98379.56;;;14.05;100.00
49297;BME280;35163;48.878;18.040;2022-09-12T06:01:33;98372.97;;;13.98;99.50
49297;BME280;35163;48.878;18.040;2022-09-12T06:04:02;98371.00;;;14.03;100.00
49297;BME280;35163;48.878;18.040;2022-09-12T06:06:31;98373.25;;;14.11;100.00
49297;BME280;35163;48.878;18.040;2022-09-12T06:09:01;98370.50;;;14.14;100.00
49297;BME280;35163;48.878;18.040;2022-09-12T06:11:30;98368.59;;;14.18;100.00
49297;BME280;35163;48.878;18.040;2022-09-12T06:13:59;98362.06;;;14.28;100.00
49297;BME280;35163;48.878;18.040;2022-09-12T06:16:28;98358.44;;;14.31;100.00
49297;BME280;35163;48.878;18.040;2022-09-12T06:18:57;98360.03;;;14.16;100.00
49297;BME280;35163;48.878;18.040;2022-09-12T06:21:25;98374.22;;;14.08;100.00
49297;BME280;35163;48.878;18.040;2022-09-12T06:23:53;98374.50;;;14.21;100.00
49297;BME280;35163;48.878;18.040;2022-09-12T06:26:21;98373.91;;;14.34;100.00
49297;BME280;35163;48.878;18.040;2022-09-12T06:28:52;98382.53;;;14.54;100.00
49297;BME280;35163;48.878;18.040;2022-09-12T06:31:24;98374.78;;;14.70;100.00
49297;BME280;35163;48.878;18.040;2022-09-12T06:33:52;98373.09;;;14.88;100.00
49297;BME280;35163;48.878;18.040;2022-09-12T06:36:25;98372.22;;;15.05;100.00
49297;BME280;35163;48.878;18.040;2022-09-12T06:38:57;98378.59;;;15.34;97.11
49297;BME280;35163;48.878;18.040;2022-09-12T06:41:27;98383.75;;;15.69;93.50
49297;BME280;35163;48.878;18.040;2022-09-12T06:43:54;98384.59;;;16.50;90.36
49297;BME280;35163;48.878;18.040;2022-09-12T06:46:21;98376.38;;;18.06;82.41
49297;BME280;35163;48.878;18.040;2022-09-12T06:48:48;98378.59;;;18.67;74.25
49297;BME280;35163;48.878;18.040;2022-09-12T06:51:17;98377.94;;;18.08;76.55
49297;BME280;35163;48.878;18.040;2022-09-12T06:53:46;98380.72;;;17.78;78.81
49297;BME280;35163;48.878;18.040;2022-09-12T06:56:18;98393.06;;;17.61;79.81
49297;BME280;35163;48.878;18.040;2022-09-12T06:58:45;98390.81;;;18.54;75.61
49297;BME280;35163;48.878;18.040;2022-09-12T07:03:45;98393.47;;;21.08;64.24
49297;BME280;35163;48.878;18.040;2022-09-12T07:06:14;98394.34;;;22.01;61.56
49297;BME280;35163;48.878;18.040;2022-09-12T07:08:41;98388.25;;;21.54;60.61
49297;BME280;35163;48.878;18.040;2022-09-12T07:11:16;98387.00;;;21.12;63.13
49297;BME280;35163;48.878;18.040;2022-09-12T07:13:45;98393.59;;;20.82;63.71
49297;BME280;35163;48.878;18.040;2022-09-12T07:16:13;98390.50;;;20.28;66.67
49297;BME280;35163;48.878;18.040;2022-09-12T07:18:49;98392.38;;;20.75;64.88
49297;BME280;35163;48.878;18.040;2022-09-12T07:21:16;98388.22;;;21.31;63.34
49297;BME280;35163;48.878;18.040;2022-09-12T07:23:43;98390.47;;;20.77;65.78
49297;BME280;35163;48.878;18.040;2022-09-12T07:26:12;98391.97;;;20.57;64.63
49297;BME280;35163;48.878;18.040;2022-09-12T07:28:39;98393.63;;;20.33;64.77
49297;BME280;35163;48.878;18.040;2022-09-12T07:31:17;98397.84;;;20.23;64.52
49297;BME280;35163;48.878;18.040;2022-09-12T07:33:43;98387.94;;;19.51;67.51
49297;BME280;35163;48.878;18.040;2022-09-12T07:36:12;98393.53;;;18.80;67.86
49297;BME280;35163;48.878;18.040;2022-09-12T07:38:39;98398.84;;;19.19;68.80
49297;BME280;35163;48.878;18.040;2022-09-12T07:41:18;98398.59;;;19.09;67.33
49297;BME280;35163;48.878;18.040;2022-09-12T07:43:46;98399.19;;;19.00;69.48
49297;BME280;35163;48.878;18.040;2022-09-12T07:46:13;98400.25;;;19.10;69.34
49297;BME280;35163;48.878;18.040;2022-09-12T07:48:40;98400.25;;;18.97;67.92
49297;BME280;35163;48.878;18.040;2022-09-12T07:51:08;98393.81;;;18.75;68.48
49297;BME280;35163;48.878;18.040;2022-09-12T07:53:38;98403.16;;;18.52;69.02
49297;BME280;35163;48.878;18.040;2022-09-12T07:56:06;98405.47;;;18.29;68.40
49297;BME280;35163;48.878;18.040;2022-09-12T07:58:34;98409.94;;;17.99;69.34
49297;BME280;35163;48.878;18.040;2022-09-12T08:01:13;98407.22;;;18.01;67.83
49297;BME280;35163;48.878;18.040;2022-09-12T08:03:41;98404.38;;;18.18;68.33
49297;BME280;35163;48.878;18.040;2022-09-12T08:08:36;98402.44;;;18.50;68.59
49297;BME280;35163;48.878;18.040;2022-09-12T08:11:06;98405.16;;;18.48;68.49
49297;BME280;35163;48.878;18.040;2022-09-12T08:13:34;98407.41;;;18.40;68.90
49297;BME280;35163;48.878;18.040;2022-09-12T08:16:04;98404.25;;;18.62;69.60
49297;BME280;35163;48.878;18.040;2022-09-12T08:18:31;98407.50;;;18.66;68.65
49297;BME280;35163;48.878;18.040;2022-09-12T08:21:00;98409.25;;;18.52;68.41
49297;BME280;35163;48.878;18.040;2022-09-12T08:23:28;98403.94;;;18.39;68.36
49297;BME280;35163;48.878;18.040;2022-09-12T08:25:55;98421.63;;;18.36;67.14
49297;BME280;35163;48.878;18.040;2022-09-12T08:28:24;98414.38;;;18.54;69.34
49297;BME280;35163;48.878;18.040;2022-09-12T08:30:53;98415.06;;;18.43;70.02
49297;BME280;35163;48.878;18.040;2022-09-12T08:33:20;98420.38;;;18.14;70.26
49297;BME280;35163;48.878;18.040;2022-09-12T08:35:47;98411.97;;;18.23;69.35
49297;BME280;35163;48.878;18.040;2022-09-12T08:38:14;98417.09;;;18.10;69.26
49297;BME280;35163;48.878;18.040;2022-09-12T08:40:52;98413.44;;;18.27;67.83
49297;BME280;35163;48.878;18.040;2022-09-12T08:46:30;98411.34;;;18.32;66.35
49297;BME280;35163;48.878;18.040;2022-09-12T08:48:59;98407.75;;;18.20;67.15
49297;BME280;35163;48.878;18.040;2022-09-12T08:51:28;98405.44;;;18.43;65.95
49297;BME280;35163;48.878;18.040;2022-09-12T08:53:57;98408.72;;;18.47;65.95
49297;BME280;35163;48.878;18.040;2022-09-12T08:56:25;98414.06;;;18.31;65.64
49297;BME280;35163;48.878;18.040;2022-09-12T08:58:57;98401.88;;;18.17;65.48
49297;BME280;35163;48.878;18.040;2022-09-12T09:01:50;98410.78;;;18.42;66.84
49297;BME280;35163;48.878;18.040;2022-09-12T09:05:34;98404.47;;;18.59;66.73
49297;BME280;35163;48.878;18.040;2022-09-12T09:13:37;98417.31;;;17.78;65.99
49297;BME280;35163;48.878;18.040;2022-09-12T09:16:33;98413.34;;;18.00;66.49
49297;BME280;35163;48.878;18.040;2022-09-12T09:19:05;98416.53;;;18.05;66.22
49297;BME280;35163;48.878;18.040;2022-09-12T09:21:47;98416.38;;;17.93;64.94
49297;BME280;35163;48.878;18.040;2022-09-12T09:24:19;98415.72;;;18.04;65.73
49297;BME280;35163;48.878;18.040;2022-09-12T09:26:53;98409.09;;;18.41;66.36
49297;BME280;35163;48.878;18.040;2022-09-12T09:29:29;98404.13;;;18.51;65.57
49297;BME280;35163;48.878;18.040;2022-09-12T09:32:00;98411.25;;;18.62;64.90
49297;BME280;35163;48.878;18.040;2022-09-12T09:34:29;98417.75;;;18.56;64.63
49297;BME280;35163;48.878;18.040;2022-09-12T09:37:19;98411.66;;;18.28;65.69
49297;BME280;35163;48.878;18.040;2022-09-12T09:42:45;98409.94;;;18.82;62.40
49297;BME280;35163;48.878;18.040;2022-09-12T09:45:21;98415.03;;;18.98;62.24
49297;BME280;35163;48.878;18.040;2022-09-12T09:48:36;98410.69;;;18.71;61.97
49297;BME280;35163;48.878;18.040;2022-09-12T09:50:42;98419.22;;;18.60;62.73
49297;BME280;35163;48.878;18.040;2022-09-12T09:53:28;98423.88;;;18.42;62.71
49297;BME280;35163;48.878;18.040;2022-09-12T09:56:00;98420.94;;;18.46;63.19
49297;BME280;35163;48.878;18.040;2022-09-12T09:58:33;98424.22;;;18.50;65.29
49297;BME280;35163;48.878;18.040;2022-09-12T10:01:05;98423.16;;;18.53;63.64
49297;BME280;35163;48.878;18.040;2022-09-12T10:03:38;98413.59;;;18.39;63.77
49297;BME280;35163;48.878;18.040;2022-09-12T10:08:47;98414.75;;;18.48;62.67
49297;BME280;35163;48.878;18.040;2022-09-12T10:18:51;98415.31;;;18.10;64.17
49297;BME280;35163;48.878;18.040;2022-09-12T10:21:26;98419.34;;;18.02;64.65
49297;BME280;35163;48.878;18.040;2022-09-12T10:26:37;98425.03;;;18.08;63.77
49297;BME280;35163;48.878;18.040;2022-09-12T10:29:18;98421.47;;;18.39;64.77
49297;BME280;35163;48.878;18.040;2022-09-12T10:32:02;98412.25;;;18.46;63.63
49297;BME280;35163;48.878;18.040;2022-09-12T10:34:37;98415.78;;;18.32;63.10
49297;BME280;35163;48.878;18.040;2022-09-12T10:37:09;98418.94;;;18.37;63.33
49297;BME280;35163;48.878;18.040;2022-09-12T10:39:49;98421.81;;;18.47;63.28
49297;BME280;35163;48.878;18.040;2022-09-12T10:42:41;98428.25;;;18.69;62.38
49297;BME280;35163;48.878;18.040;2022-09-12T10:45:33;98424.75;;;18.96;61.75
49297;BME280;35163;48.878;18.040;2022-09-12T10:50:51;98417.50;;;19.40;62.09
49297;BME280;35163;48.878;18.040;2022-09-12T10:53:24;98420.31;;;19.37;61.79
49297;BME280;35163;48.878;18.040;2022-09-12T10:56:09;98411.19;;;19.56;58.80
49297;BME280;35163;48.878;18.040;2022-09-12T11:01:59;98418.00;;;19.46;56.37
49297;BME280;35163;48.878;18.040;2022-09-12T11:04:38;98426.94;;;19.69;54.12
49297;BME280;35163;48.878;18.040;2022-09-12T11:07:17;98427.16;;;19.40;54.78
49297;BME280;35163;48.878;18.040;2022-09-12T11:10:00;98420.53;;;19.34;55.58
49297;BME280;35163;48.878;18.040;2022-09-12T11:26:40;98433.69;;;18.66;57.07
49297;BME280;35163;48.878;18.040;2022-09-12T11:37:32;98425.94;;;18.64;58.08
49297;BME280;35163;48.878;18.040;2022-09-12T11:40:06;98431.66;;;18.84;58.24
49297;BME280;35163;48.878;18.040;2022-09-12T11:42:42;98436.69;;;18.87;58.09
49297;BME280;35163;48.878;18.040;2022-09-12T11:45:18;98433.72;;;18.79;58.97
49297;BME280;35163;48.878;18.040;2022-09-12T11:47:52;98430.97;;;18.67;58.92
49297;BME280;35163;48.878;18.040;2022-09-12T11:50:25;98430.97;;;18.67;57.98
49297;BME280;35163;48.878;18.040;2022-09-12T11:52:54;98427.31;;;18.42;56.03
49297;BME280;35163;48.878;18.040;2022-09-12T11:55:28;98423.22;;;18.66;56.23
49297;BME280;35163;48.878;18.040;2022-09-12T11:57:57;98425.13;;;18.77;57.07
49297;BME280;35163;48.878;18.040;2022-09-12T12:00:34;98428.44;;;19.06;54.49
49297;BME280;35163;48.878;18.040;2022-09-12T12:08:04;98423.16;;;19.47;52.69
49297;BME280;35163;48.878;18.040;2022-09-12T12:10:39;98420.97;;;19.28;52.75
49297;BME280;35163;48.878;18.040;2022-09-12T12:13:30;98420.44;;;19.36;53.86
49297;BME280;35163;48.878;18.040;2022-09-12T12:16:06;98422.97;;;19.50;55.35
49297;BME280;35163;48.878;18.040;2022-09-12T12:18:36;98425.56;;;19.37;53.53
49297;BME280;35163;48.878;18.040;2022-09-12T12:24:24;98419.09;;;18.89;54.36
49297;BME280;35163;48.878;18.040;2022-09-12T12:27:22;98413.00;;;18.48;55.50
49297;BME280;35163;48.878;18.040;2022-09-12T12:29:49;98411.22;;;18.76;56.79
49297;BME280;35163;48.878;18.040;2022-09-12T12:34:44;98411.06;;;18.65;57.36
49297;BME280;35163;48.878;18.040;2022-09-12T12:47:38;98415.94;;;18.84;57.22
49297;BME280;35163;48.878;18.040;2022-09-12T12:52:48;98410.09;;;18.93;57.82
49297;BME280;35163;48.878;18.040;2022-09-12T12:57:55;98406.63;;;19.06;56.63
49297;BME280;35163;48.878;18.040;2022-09-12T13:03:06;98405.78;;;18.92;54.10
49297;BME280;35163;48.878;18.040;2022-09-12T13:05:43;98409.22;;;18.80;53.53
49297;BME280;35163;48.878;18.040;2022-09-12T13:10:52;98404.44;;;18.87;53.91
49297;BME280;35163;48.878;18.040;2022-09-12T13:13:25;98398.47;;;18.57;55.68
49297;BME280;35163;48.878;18.040;2022-09-12T13:15:52;98397.78;;;18.68;54.57
49297;BME280;35163;48.878;18.040;2022-09-12T13:18:25;98399.03;;;18.62;53.99
49297;BME280;35163;48.878;18.040;2022-09-12T13:20:59;98394.22;;;18.41;53.01
49297;BME280;35163;48.878;18.040;2022-09-12T13:23:31;98396.59;;;18.59;54.30
49297;BME280;35163;48.878;18.040;2022-09-12T13:25:59;98386.50;;;18.53;52.85
49297;BME280;35163;48.878;18.040;2022-09-12T13:28:29;98384.00;;;18.51;53.66
49297;BME280;35163;48.878;18.040;2022-09-12T13:30:59;98376.53;;;18.73;53.61
49297;BME280;35163;48.878;18.040;2022-09-12T13:33:57;98370.88;;;18.79;53.74
49297;BME280;35163;48.878;18.040;2022-09-12T13:42:16;98369.59;;;18.72;51.70
49297;BME280;35163;48.878;18.040;2022-09-12T13:45:04;98366.47;;;18.79;50.91
49297;BME280;35163;48.878;18.040;2022-09-12T13:47:35;98372.47;;;18.81;50.29
49297;BME280;35163;48.878;18.040;2022-09-12T13:50:05;98366.38;;;18.81;49.26
49297;BME280;35163;48.878;18.040;2022-09-12T13:52:34;98369.09;;;18.66;49.33
49297;BME280;35163;48.878;18.040;2022-09-12T13:55:17;98361.81;;;18.57;49.22
49297;BME280;35163;48.878;18.040;2022-09-12T13:57:55;98348.56;;;18.86;49.96
49297;BME280;35163;48.878;18.040;2022-09-12T14:00:22;98352.31;;;18.82;49.58
49297;BME280;35163;48.878;18.040;2022-09-12T14:02:49;98350.94;;;18.63;50.18
49297;BME280;35163;48.878;18.040;2022-09-12T14:05:37;98354.22;;;18.80;51.12
49297;BME280;35163;48.878;18.040;2022-09-12T14:08:07;98355.03;;;18.67;50.78
49297;BME280;35163;48.878;18.040;2022-09-12T14:10:37;98358.91;;;18.62;51.11
49297;BME280;35163;48.878;18.040;2022-09-12T14:13:11;98352.19;;;18.57;50.88
49297;BME280;35163;48.878;18.040;2022-09-12T14:15:38;98346.63;;;18.49;51.70
49297;BME280;35163;48.878;18.040;2022-09-12T14:18:21;98351.69;;;18.65;51.79
49297;BME280;35163;48.878;18.040;2022-09-12T14:20:48;98347.09;;;18.82;51.71
49297;BME280;35163;48.878;18.040;2022-09-12T14:23:29;98356.84;;;18.80;50.32
49297;BME280;35163;48.878;18.040;2022-09-12T14:26:01;98344.16;;;18.74;50.62
49297;BME280;35163;48.878;18.040;2022-09-12T14:28:29;98349.38;;;18.74;49.92
49297;BME280;35163;48.878;18.040;2022-09-12T14:31:04;98345.16;;;18.58;50.29
49297;BME280;35163;48.878;18.040;2022-09-12T14:33:49;98348.72;;;18.57;50.93
49297;BME280;35163;48.878;18.040;2022-09-12T14:36:33;98346.44;;;18.52;50.43
49297;BME280;35163;48.878;18.040;2022-09-12T14:39:02;98347.69;;;18.60;50.80
49297;BME280;35163;48.878;18.040;2022-09-12T14:41:36;98357.03;;;18.64;50.53
49297;BME280;35163;48.878;18.040;2022-09-12T14:44:07;98350.66;;;18.68;52.65
49297;BME280;35163;48.878;18.040;2022-09-12T14:46:40;98355.63;;;18.58;50.66
49297;BME280;35163;48.878;18.040;2022-09-12T14:51:51;98356.16;;;18.63;51.43
49297;BME280;35163;48.878;18.040;2022-09-12T14:57:32;98353.44;;;18.65;52.20
49297;BME280;35163;48.878;18.040;2022-09-12T15:02:42;98346.03;;;18.72;51.05
49297;BME280;35163;48.878;18.040;2022-09-12T15:07:41;98349.38;;;18.61;51.52
49297;BME280;35163;48.878;18.040;2022-09-12T15:10:25;98343.41;;;18.58;51.59
49297;BME280;35163;48.878;18.040;2022-09-12T15:15:31;98343.81;;;18.65;50.86
49297;BME280;35163;48.878;18.040;2022-09-12T15:17:58;98346.38;;;18.80;51.00
49297;BME280;35163;48.878;18.040;2022-09-12T15:20:42;98340.13;;;18.96;49.98
49297;BME280;35163;48.878;18.040;2022-09-12T15:23:19;98344.91;;;18.89;49.83
49297;BME280;35163;48.878;18.040;2022-09-12T15:25:49;98345.44;;;18.81;50.97
49297;BME280;35163;48.878;18.040;2022-09-12T15:28:18;98346.88;;;18.72;50.69
49297;BME280;35163;48.878;18.040;2022-09-12T15:30:47;98345.63;;;18.78;50.72
49297;BME280;35163;48.878;18.040;2022-09-12T15:33:18;98343.16;;;18.49;50.86
49297;BME280;35163;48.878;18.040;2022-09-12T15:35:46;98338.13;;;18.45;51.25
49297;BME280;35163;48.878;18.040;2022-09-12T15:38:13;98343.16;;;18.49;52.38
49297;BME280;35163;48.878;18.040;2022-09-12T15:40:40;98344.28;;;18.44;52.27
49297;BME280;35163;48.878;18.040;2022-09-12T15:43:06;98346.31;;;18.54;52.34
49297;BME280;35163;48.878;18.040;2022-09-12T15:45:34;98343.56;;;18.42;52.82
49297;BME280;35163;48.878;18.040;2022-09-12T15:48:01;98349.97;;;18.24;52.72
49297;BME280;35163;48.878;18.040;2022-09-12T15:50:29;98339.34;;;18.27;53.71
49297;BME280;35163;48.878;18.040;2022-09-12T15:52:55;98338.97;;;18.18;54.69
49297;BME280;35163;48.878;18.040;2022-09-12T15:55:31;98347.00;;;18.30;54.52